createdAt,value
2023-08-09T00:00:39.977Z,1.30
2023-08-09T00:03:08.705Z,0.90
2023-08-09T00:05:36.585Z,1.33
2023-08-09T00:08:06.984Z,1.30
2023-08-09T00:10:35.589Z,1.13
2023-08-09T00:13:04.254Z,1.30
2023-08-09T00:15:32.095Z,1.00
2023-08-09T00:18:03.152Z,1.20
2023-08-09T00:22:59.406Z,1.10
2023-08-09T00:25:27.344Z,1.00
2023-08-09T00:27:55.205Z,1.25
2023-08-09T00:30:23.782Z,1.10
2023-08-09T00:32:52.573Z,1.10
2023-08-09T00:35:20.358Z,1.10
2023-08-09T00:37:48.153Z,1.13
2023-08-09T00:40:18.214Z,1.27
2023-08-09T00:42:48.374Z,1.30
2023-08-09T00:45:16.147Z,1.20
2023-08-09T00:47:44.450Z,1.05
2023-08-09T00:50:12.694Z,1.50
2023-08-09T00:52:48.240Z,1.17
2023-08-09T00:55:16.782Z,1.23
2023-08-09T00:57:47.162Z,1.10
2023-08-09T01:00:15.752Z,1.27
2023-08-09T01:05:53.527Z,1.33
2023-08-09T01:08:56.941Z,1.30
2023-08-09T01:11:53.098Z,1.17
2023-08-09T01:14:26.505Z,1.15
2023-08-09T01:17:01.064Z,1.40
2023-08-09T01:19:48.673Z,1.15
2023-08-09T01:22:36.669Z,1.08
2023-08-09T01:25:14.430Z,1.17
2023-08-09T01:27:45.660Z,1.20
2023-08-09T01:30:21.881Z,1.20
2023-08-09T01:33:06.756Z,1.48
2023-08-09T01:35:45.808Z,1.60
2023-08-09T01:38:33.035Z,1.33
2023-08-09T01:41:12.307Z,1.10
2023-08-09T01:43:47.336Z,1.35
2023-08-09T01:46:31.409Z,1.30
2023-08-09T01:49:13.753Z,1.25
2023-08-09T01:51:45.147Z,1.30
2023-08-09T01:54:29.470Z,1.30
2023-08-09T01:57:10.482Z,1.10
2023-08-09T01:59:48.638Z,1.35
2023-08-09T02:02:24.673Z,1.15
2023-08-09T02:04:59.208Z,1.30
2023-08-09T02:07:36.554Z,1.15
2023-08-09T02:10:12.826Z,1.15
2023-08-09T02:18:11.470Z,0.90
2023-08-09T02:20:42.267Z,1.10
2023-08-09T02:23:15.953Z,1.20
2023-08-09T02:25:47.379Z,1.20
2023-08-09T02:28:30.250Z,1.20
2023-08-09T02:31:09.745Z,1.30
2023-08-09T02:34:00.293Z,1.20
2023-08-09T02:36:33.245Z,1.40
2023-08-09T02:39:13.077Z,1.05
2023-08-09T02:41:50.959Z,1.30
2023-08-09T02:44:35.209Z,1.40
2023-08-09T02:47:14.381Z,1.10
2023-08-09T02:49:59.214Z,1.00
2023-08-09T02:52:37.469Z,1.10
2023-08-09T02:55:20.191Z,1.10
2023-08-09T02:58:07.232Z,0.93
2023-08-09T03:00:56.717Z,1.15
2023-08-09T03:03:28.663Z,0.98
2023-08-09T03:06:09.401Z,1.08
2023-08-09T03:08:43.929Z,1.02
2023-08-09T03:14:48.904Z,0.98
2023-08-09T03:17:18.497Z,0.90
2023-08-09T03:20:21.375Z,1.30
2023-08-09T03:23:01.480Z,1.10
2023-08-09T03:25:46.495Z,1.20
2023-08-09T03:28:20.545Z,1.00
2023-08-09T03:30:54.428Z,1.10
2023-08-09T03:33:29.246Z,1.10
2023-08-09T03:36:04.258Z,0.93
2023-08-09T03:38:40.030Z,1.15
2023-08-09T03:41:30.177Z,0.95
2023-08-09T03:44:09.382Z,1.25
2023-08-09T03:46:45.568Z,1.40
2023-08-09T03:49:19.059Z,1.30
2023-08-09T03:54:42.495Z,0.93
2023-08-09T03:57:29.371Z,0.90
2023-08-09T04:00:01.666Z,1.20
2023-08-09T04:02:52.574Z,1.23
2023-08-09T04:05:36.112Z,1.20
2023-08-09T04:08:15.737Z,1.20
2023-08-09T04:10:50.077Z,1.50
2023-08-09T04:13:22.860Z,1.45
2023-08-09T04:16:00.211Z,1.38
2023-08-09T04:18:33.711Z,1.25
2023-08-09T04:21:13.202Z,1.55
2023-08-09T04:23:51.060Z,1.13
2023-08-09T04:26:26.262Z,1.17
2023-08-09T04:29:16.579Z,1.02
2023-08-09T04:31:50.707Z,1.17
2023-08-09T04:34:21.404Z,1.55
2023-08-09T04:37:01.509Z,1.42
2023-08-09T04:39:35.774Z,1.10
2023-08-09T04:42:12.338Z,1.10
2023-08-09T04:44:40.968Z,1.20
2023-08-09T04:47:10.796Z,1.50
2023-08-09T04:49:40.885Z,1.33
2023-08-09T04:52:10.869Z,1.30
2023-08-09T04:54:39.990Z,1.15
2023-08-09T04:57:10.877Z,1.00
2023-08-09T04:59:45.960Z,1.23
2023-08-09T05:02:15.268Z,1.10
2023-08-09T05:04:43.764Z,1.55
2023-08-09T05:07:18.577Z,1.10
2023-08-09T05:09:50.416Z,1.13
2023-08-09T05:12:24.650Z,1.30
2023-08-09T05:14:55.362Z,1.27
2023-08-09T05:17:28.290Z,1.20
2023-08-09T05:19:57.335Z,1.30
2023-08-09T05:22:30.745Z,1.20
2023-08-09T05:25:02.624Z,1.23
2023-08-09T05:27:39.775Z,1.45
2023-08-09T05:30:13.327Z,1.30
2023-08-09T05:32:45.286Z,1.13
2023-08-09T05:35:15.784Z,1.58
2023-08-09T05:37:46.641Z,1.30
2023-08-09T05:40:16.582Z,1.10
2023-08-09T05:42:45.753Z,1.20
2023-08-09T05:45:22.615Z,1.33
2023-08-09T05:47:55.109Z,1.30
2023-08-09T05:50:25.785Z,1.05
2023-08-09T05:52:59.643Z,1.23
2023-08-09T05:55:32.540Z,1.38
2023-08-09T05:58:04.981Z,1.50
2023-08-09T06:00:39.578Z,1.33
2023-08-09T06:03:13.762Z,1.15
2023-08-09T06:05:44.579Z,1.20
2023-08-09T06:08:14.774Z,1.10
2023-08-09T06:10:45.776Z,1.15
2023-08-09T06:13:20.658Z,1.35
2023-08-09T06:15:56.514Z,1.27
2023-08-09T06:18:29.338Z,1.20
2023-08-09T06:21:00.752Z,1.20
2023-08-09T06:23:32.976Z,1.17
2023-08-09T06:26:05.296Z,1.35
2023-08-09T06:28:36.775Z,2.35
2023-08-09T06:31:06.785Z,1.60
2023-08-09T06:33:44.032Z,1.38
2023-08-09T06:36:18.846Z,1.25
2023-08-09T06:38:51.113Z,1.30
2023-08-09T06:41:20.615Z,1.38
2023-08-09T06:43:50.536Z,1.27
2023-08-09T06:46:23.065Z,1.30
2023-08-09T06:48:54.174Z,1.10
2023-08-09T06:51:26.533Z,1.70
2023-08-09T06:53:59.186Z,1.50
2023-08-09T06:56:29.148Z,1.00
2023-08-09T06:59:02.632Z,1.10
2023-08-09T07:01:33.572Z,1.48
2023-08-09T07:04:08.206Z,1.15
2023-08-09T07:06:42.442Z,1.10
2023-08-09T07:09:15.701Z,1.10
2023-08-09T07:11:49.988Z,1.45
2023-08-09T07:14:19.215Z,1.20
2023-08-09T07:16:49.193Z,1.10
2023-08-09T07:19:23.807Z,1.30
2023-08-09T07:21:55.242Z,1.20
2023-08-09T07:24:30.438Z,1.00
2023-08-09T07:27:00.121Z,1.90
2023-08-09T07:29:34.284Z,1.55
2023-08-09T07:32:04.173Z,1.20
2023-08-09T07:34:37.695Z,1.20
2023-08-09T07:37:08.955Z,1.25
2023-08-09T07:39:38.098Z,1.65
2023-08-09T07:42:11.596Z,1.48
2023-08-09T07:44:43.555Z,1.27
2023-08-09T07:47:13.763Z,1.30
2023-08-09T07:49:44.197Z,1.10
2023-08-09T07:52:15.515Z,1.10
2023-08-09T07:54:47.727Z,1.00
2023-08-09T07:57:22.653Z,1.10
2023-08-09T08:00:03.352Z,0.98
2023-08-09T08:02:44.730Z,1.20
2023-08-09T08:05:15.968Z,0.82
2023-08-09T08:07:49.681Z,1.17
2023-08-09T08:10:21.737Z,0.80
2023-08-09T08:12:54.284Z,1.00
2023-08-09T08:15:25.561Z,0.90
2023-08-09T08:17:53.555Z,0.90
2023-08-09T08:20:21.519Z,1.23
2023-08-09T08:22:51.609Z,0.82
2023-08-09T08:25:21.134Z,1.00
2023-08-09T08:27:49.354Z,1.00
2023-08-09T08:30:26.954Z,0.95
2023-08-09T08:32:55.146Z,0.80
2023-08-09T08:35:26.083Z,1.00
2023-08-09T08:37:54.632Z,1.08
2023-08-09T08:40:24.831Z,1.13
2023-08-09T08:42:52.752Z,0.85
2023-08-09T08:45:21.932Z,0.90
2023-08-09T08:47:51.856Z,0.80
2023-08-09T08:50:20.323Z,0.90
2023-08-09T08:52:52.125Z,0.90
2023-08-09T08:55:20.483Z,0.90
2023-08-09T08:57:48.611Z,0.90
2023-08-09T09:00:26.954Z,1.08
2023-08-09T09:02:58.034Z,0.90
2023-08-09T09:05:26.149Z,1.10
2023-08-09T09:08:00.510Z,1.20
2023-08-09T09:10:28.993Z,1.10
2023-08-09T09:12:57.171Z,0.80
2023-08-09T09:15:27.839Z,1.05
2023-08-09T09:17:58.899Z,0.80
2023-08-09T09:20:35.035Z,0.90
2023-08-09T09:23:03.891Z,0.95
2023-08-09T09:25:37.885Z,0.80
2023-08-09T09:28:06.036Z,0.82
2023-08-09T09:30:34.664Z,0.80
2023-08-09T09:33:06.496Z,1.00
2023-08-09T09:35:35.072Z,0.88
2023-08-09T09:38:06.370Z,0.82
2023-08-09T09:40:37.881Z,0.95
2023-08-09T09:43:08.476Z,0.85
2023-08-09T09:45:38.562Z,0.80
2023-08-09T09:48:20.572Z,0.63
2023-08-09T09:50:50.522Z,0.63
2023-08-09T09:53:20.605Z,0.80
2023-08-09T09:55:49.137Z,0.80
2023-08-09T09:58:19.619Z,0.80
2023-08-09T10:00:53.651Z,0.60
2023-08-09T10:03:26.133Z,0.80
2023-08-09T10:05:57.829Z,0.77
2023-08-09T10:08:28.720Z,0.60
2023-08-09T10:10:57.697Z,0.60
2023-08-09T10:13:27.945Z,0.70
2023-08-09T10:16:01.558Z,0.70
2023-08-09T10:18:43.554Z,0.82
2023-08-09T10:21:15.712Z,0.95
2023-08-09T10:24:07.886Z,0.40
2023-08-09T10:26:40.946Z,0.57
2023-08-09T10:29:15.781Z,0.45
2023-08-09T10:31:58.598Z,0.70
2023-08-09T10:34:44.363Z,0.43
2023-08-09T10:37:24.630Z,0.70
2023-08-09T10:40:17.132Z,0.50
2023-08-09T10:42:49.994Z,0.70
2023-08-09T10:45:17.874Z,0.60
2023-08-09T10:47:46.013Z,0.70
2023-08-09T10:50:19.524Z,0.50
2023-08-09T10:52:51.046Z,0.70
2023-08-09T10:55:27.315Z,0.60
2023-08-09T10:57:57.397Z,0.60
2023-08-09T11:00:37.876Z,0.60
2023-08-09T11:03:06.564Z,0.60
2023-08-09T11:05:34.732Z,0.57
2023-08-09T11:08:23.590Z,1.80
2023-08-09T11:10:53.371Z,0.95
2023-08-09T11:13:21.348Z,0.93
2023-08-09T11:15:52.069Z,0.80
2023-08-09T11:18:20.203Z,0.80
2023-08-09T11:20:48.580Z,0.63
2023-08-09T11:23:21.242Z,0.60
2023-08-09T11:25:49.021Z,0.70
2023-08-09T11:28:16.756Z,0.70
2023-08-09T11:30:46.851Z,0.80
2023-08-09T11:33:16.608Z,0.80
2023-08-09T11:35:45.508Z,0.80
2023-08-09T11:38:17.231Z,0.90
2023-08-09T11:43:19.386Z,0.70
2023-08-09T11:45:55.687Z,0.85
2023-08-09T11:48:45.562Z,0.60
2023-08-09T11:51:17.809Z,0.60
2023-08-09T11:53:50.301Z,0.55
2023-08-09T11:56:21.178Z,0.52
2023-08-09T11:58:55.159Z,0.60
2023-08-09T12:01:38.580Z,0.55
2023-08-09T12:04:11.502Z,0.80
2023-08-09T12:06:45.445Z,0.80
2023-08-09T12:09:37.590Z,0.77
2023-08-09T12:12:13.230Z,0.75
2023-08-09T12:14:45.073Z,0.75
2023-08-09T12:17:30.661Z,0.70
2023-08-09T12:20:10.076Z,0.73
2023-08-09T12:22:39.251Z,0.80
2023-08-09T12:25:11.243Z,0.88
2023-08-09T12:27:40.221Z,0.90
2023-08-09T12:30:14.452Z,0.75
2023-08-09T12:32:42.373Z,1.00
2023-08-09T12:35:12.798Z,0.80
2023-08-09T12:37:40.988Z,0.55
2023-08-09T12:40:10.757Z,0.80
2023-08-09T12:42:39.562Z,0.88
2023-08-09T12:45:08.104Z,1.00
2023-08-09T12:47:36.387Z,1.20
2023-08-09T12:50:17.813Z,0.85
2023-08-09T12:52:52.103Z,0.80
2023-08-09T12:55:23.938Z,0.75
2023-08-09T12:57:51.989Z,0.70
2023-08-09T13:00:21.808Z,0.65
2023-08-09T13:02:50.193Z,0.70
2023-08-09T13:05:22.303Z,1.10
2023-08-09T13:07:50.747Z,0.60
2023-08-09T13:10:18.776Z,0.60
2023-08-09T13:12:46.614Z,0.68
2023-08-09T13:15:18.390Z,0.65
2023-08-09T13:17:46.555Z,0.93
2023-08-09T13:20:17.048Z,0.70
2023-08-09T13:22:45.293Z,0.63
2023-08-09T13:25:13.228Z,0.70
2023-08-09T13:27:41.124Z,0.88
2023-08-09T13:30:09.911Z,0.70
2023-08-09T13:32:38.197Z,0.82
2023-08-09T13:35:07.975Z,0.60
2023-08-09T13:37:40.469Z,0.80
2023-08-09T13:40:10.395Z,0.70
2023-08-09T13:42:39.402Z,1.13
2023-08-09T13:45:09.599Z,0.80
2023-08-09T13:47:38.656Z,0.75
2023-08-09T13:50:10.839Z,0.82
2023-08-09T13:52:38.731Z,0.70
2023-08-09T13:55:10.094Z,0.70
2023-08-09T13:57:39.331Z,0.80
2023-08-09T14:00:20.458Z,0.70
2023-08-09T14:02:51.653Z,0.80
2023-08-09T14:05:25.517Z,0.60
2023-08-09T14:07:53.486Z,0.70
2023-08-09T14:10:21.247Z,0.70
2023-08-09T14:12:50.813Z,0.70
2023-08-09T14:15:18.732Z,0.65
2023-08-09T14:17:48.699Z,0.88
2023-08-09T14:20:17.919Z,0.77
2023-08-09T14:22:48.887Z,0.70
2023-08-09T14:25:25.956Z,0.77
2023-08-09T14:27:54.817Z,0.70
2023-08-09T14:30:22.743Z,0.70
2023-08-09T14:32:50.624Z,0.90
2023-08-09T14:35:20.190Z,0.57
2023-08-09T14:37:48.048Z,0.90
2023-08-09T14:40:18.451Z,1.23
2023-08-09T14:42:46.288Z,0.85
2023-08-09T14:45:14.092Z,0.77
2023-08-09T14:47:41.916Z,0.70
2023-08-09T14:50:10.308Z,0.80
2023-08-09T14:52:38.141Z,0.73
2023-08-09T14:55:06.883Z,0.73
2023-08-09T14:57:34.666Z,0.70
2023-08-09T15:00:02.612Z,0.73
2023-08-09T15:02:31.086Z,0.63
2023-08-09T15:04:58.984Z,0.73
2023-08-09T15:07:27.381Z,0.80
2023-08-09T15:09:55.412Z,0.80
2023-08-09T15:12:23.966Z,0.68
2023-08-09T15:14:51.704Z,0.70
2023-08-09T15:17:25.250Z,0.80
2023-08-09T15:19:55.042Z,1.38
2023-08-09T15:22:25.576Z,1.20
2023-08-09T15:25:00.161Z,1.20
2023-08-09T15:27:28.352Z,1.10
2023-08-09T15:29:56.109Z,1.08
2023-08-09T15:32:24.285Z,1.05
2023-08-09T15:34:52.067Z,1.10
2023-08-09T15:37:21.890Z,1.10
2023-08-09T15:39:49.865Z,0.90
2023-08-09T15:42:19.137Z,1.10
2023-08-09T15:44:47.329Z,1.30
2023-08-09T15:47:19.463Z,1.20
2023-08-09T15:49:50.564Z,1.05
2023-08-09T15:52:19.778Z,1.02
2023-08-09T15:54:47.834Z,0.82
2023-08-09T15:57:15.833Z,0.90
2023-08-09T15:59:44.722Z,1.00
2023-08-09T16:02:14.665Z,1.00
2023-08-09T16:04:43.417Z,1.20
2023-08-09T16:07:13.217Z,1.10
2023-08-09T16:09:41.268Z,1.15
2023-08-09T16:12:12.526Z,1.13
2023-08-09T16:14:40.701Z,1.40
2023-08-09T16:17:08.919Z,1.20
2023-08-09T16:19:37.022Z,1.17
2023-08-09T16:22:05.917Z,1.20
2023-08-09T16:24:33.685Z,1.00
2023-08-09T16:27:03.331Z,0.77
2023-08-09T16:29:31.542Z,1.00
2023-08-09T16:31:59.992Z,0.88
2023-08-09T16:34:28.865Z,1.10
2023-08-09T16:36:56.641Z,1.10
2023-08-09T16:39:24.409Z,1.00
2023-08-09T16:41:52.171Z,1.02
2023-08-09T16:44:19.921Z,1.05
2023-08-09T16:46:47.716Z,1.00
2023-08-09T16:49:15.525Z,1.10
2023-08-09T16:51:43.387Z,0.98
2023-08-09T16:54:11.765Z,1.45
2023-08-09T16:56:39.629Z,0.98
2023-08-09T16:59:07.428Z,1.20
2023-08-09T17:01:35.374Z,1.15
2023-08-09T17:04:03.310Z,1.00
2023-08-09T17:06:31.301Z,0.80
2023-08-09T17:09:00.673Z,0.98
2023-08-09T17:11:28.539Z,0.90
2023-08-09T17:13:56.368Z,0.80
2023-08-09T17:16:24.182Z,0.90
2023-08-09T17:18:51.970Z,0.95
2023-08-09T17:21:19.750Z,0.98
2023-08-09T17:23:47.896Z,1.00
2023-08-09T17:26:15.693Z,0.90
2023-08-09T17:28:43.481Z,0.90
2023-08-09T17:31:11.288Z,1.02
2023-08-09T17:33:39.108Z,0.88
2023-08-09T17:36:07.356Z,0.90
2023-08-09T17:38:37.281Z,0.80
2023-08-09T17:41:05.161Z,0.90
2023-08-09T17:43:33.870Z,1.20
2023-08-09T17:46:01.677Z,1.00
2023-08-09T17:48:29.650Z,1.27
2023-08-09T17:50:57.393Z,1.10
2023-08-09T17:53:25.264Z,1.10
2023-08-09T17:55:53.094Z,1.10
2023-08-09T17:58:21.292Z,1.33
2023-08-09T18:00:49.111Z,1.27
2023-08-09T18:03:16.989Z,1.15
2023-08-09T18:05:44.797Z,1.13
2023-08-09T18:08:12.683Z,1.10
2023-08-09T18:10:40.444Z,0.82
2023-08-09T18:13:08.275Z,1.42
2023-08-09T18:15:36.023Z,1.17
2023-08-09T18:18:04.365Z,1.00
2023-08-09T18:20:32.367Z,1.35
2023-08-09T18:23:00.209Z,1.20
2023-08-09T18:25:28.117Z,1.38
2023-08-09T18:27:55.970Z,1.13
2023-08-09T18:30:23.937Z,1.42
2023-08-09T18:32:51.825Z,1.30
2023-08-09T18:35:19.683Z,1.25
2023-08-09T18:37:48.417Z,1.27
2023-08-09T18:40:17.640Z,1.35
2023-08-09T18:42:47.125Z,1.73
2023-08-09T18:45:17.034Z,1.40
2023-08-09T18:47:45.296Z,1.45
2023-08-09T18:50:13.553Z,1.30
2023-08-09T18:52:44.394Z,1.48
2023-08-09T18:55:12.532Z,1.35
2023-08-09T18:57:40.506Z,1.60
2023-08-09T19:00:13.380Z,1.65
2023-08-09T19:02:45.570Z,1.50
2023-08-09T19:05:13.909Z,1.33
2023-08-09T19:07:49.750Z,1.52
2023-08-09T19:10:20.356Z,1.60
2023-08-09T19:12:48.975Z,1.70
2023-08-09T19:15:17.900Z,1.50
2023-08-09T19:17:45.820Z,1.60
2023-08-09T19:20:14.076Z,1.30
2023-08-09T19:22:41.985Z,1.40
2023-08-09T19:25:16.689Z,1.50
2023-08-09T19:27:45.083Z,1.40
2023-08-09T19:30:13.069Z,1.48
2023-08-09T19:32:40.897Z,1.70
2023-08-09T19:35:09.854Z,1.60
2023-08-09T19:37:38.131Z,1.80
2023-08-09T19:40:08.609Z,1.85
2023-08-09T19:42:37.130Z,1.60
2023-08-09T19:45:05.852Z,1.35
2023-08-09T19:47:33.692Z,1.25
2023-08-09T19:50:01.662Z,1.13
2023-08-09T19:52:30.029Z,1.00
2023-08-09T19:54:57.891Z,0.90
2023-08-09T19:57:25.749Z,1.00
2023-08-09T19:59:53.942Z,1.10
2023-08-09T20:02:22.403Z,0.88
2023-08-09T20:04:50.285Z,0.80
2023-08-09T20:07:18.305Z,0.60
2023-08-09T20:09:47.458Z,0.75
2023-08-09T20:12:15.458Z,0.70
2023-08-09T20:14:43.323Z,0.68
2023-08-09T20:17:11.111Z,0.75
2023-08-09T20:19:38.919Z,0.70
2023-08-09T20:22:06.862Z,0.60
2023-08-09T20:24:43.141Z,0.80
2023-08-09T20:27:12.697Z,0.60
2023-08-09T20:29:40.895Z,0.90
2023-08-09T20:32:09.424Z,0.80
2023-08-09T20:34:37.700Z,0.85
2023-08-09T20:37:05.783Z,0.63
2023-08-09T20:39:33.873Z,0.80
2023-08-09T20:42:01.671Z,0.80
2023-08-09T20:44:35.857Z,0.70
2023-08-09T20:47:05.648Z,0.80
2023-08-09T20:49:34.301Z,0.90
2023-08-09T20:52:04.036Z,0.70
2023-08-09T20:54:32.344Z,1.02
2023-08-09T20:57:00.156Z,0.90
2023-08-09T20:59:32.176Z,0.77
2023-08-09T21:02:00.678Z,0.77
2023-08-09T21:04:28.650Z,0.75
2023-08-09T21:06:56.457Z,0.73
2023-08-09T21:09:24.347Z,0.80
2023-08-09T21:11:52.104Z,0.70
2023-08-09T21:14:20.734Z,0.70
2023-08-09T21:16:48.488Z,0.80
2023-08-09T21:19:18.196Z,0.88
2023-08-09T21:21:46.921Z,0.90
2023-08-09T21:29:18.469Z,0.90
2023-08-09T21:31:46.253Z,0.90
2023-08-09T21:34:14.049Z,0.82
2023-08-09T21:36:43.114Z,0.70
2023-08-09T21:39:12.019Z,0.80
2023-08-09T21:41:39.860Z,0.90
2023-08-09T21:44:07.950Z,1.00
2023-08-09T21:46:35.723Z,1.00
2023-08-09T21:49:03.633Z,0.75
2023-08-09T21:51:31.401Z,1.00
2023-08-09T21:53:59.968Z,1.00
2023-08-09T21:56:27.752Z,0.93
2023-08-09T21:58:55.550Z,0.82
2023-08-09T22:01:25.865Z,0.90
2023-08-09T22:03:53.914Z,0.80
2023-08-09T22:06:21.747Z,0.90
2023-08-09T22:08:50.557Z,0.70
2023-08-09T22:11:18.428Z,0.90
2023-08-09T22:13:46.339Z,0.80
2023-08-09T22:16:14.179Z,1.00
2023-08-09T22:18:42.006Z,0.77
2023-08-09T22:21:09.967Z,0.70
2023-08-09T22:23:38.039Z,0.80
2023-08-09T22:26:05.865Z,1.00
2023-08-09T22:28:33.629Z,1.08
2023-08-09T22:31:01.639Z,0.80
2023-08-09T22:33:29.998Z,0.80
2023-08-09T22:35:57.798Z,0.90
2023-08-09T22:38:25.601Z,0.95
2023-08-09T22:40:53.584Z,0.90
2023-08-09T22:43:21.645Z,0.88
2023-08-09T22:45:50.644Z,0.80
2023-08-09T22:48:18.462Z,0.80
2023-08-09T22:50:46.823Z,1.00
2023-08-09T22:53:14.831Z,0.80
2023-08-09T22:55:43.177Z,0.70
2023-08-09T22:58:11.900Z,0.90
2023-08-09T23:00:39.678Z,0.73
2023-08-09T23:03:07.524Z,0.85
2023-08-09T23:05:36.173Z,0.98
2023-08-09T23:08:04.724Z,0.90
2023-08-09T23:10:33.216Z,0.90
2023-08-09T23:13:01.139Z,0.75
2023-08-09T23:15:28.999Z,0.80
2023-08-09T23:17:56.768Z,0.80
2023-08-09T23:20:28.892Z,0.98
2023-08-09T23:23:00.813Z,0.90
2023-08-09T23:25:28.637Z,0.80
2023-08-09T23:27:56.417Z,0.93
2023-08-09T23:30:24.192Z,0.80
2023-08-09T23:32:52.151Z,0.80
2023-08-09T23:35:20.843Z,0.98
2023-08-09T23:37:48.539Z,1.05
2023-08-09T23:40:16.404Z,1.00
2023-08-09T23:42:44.372Z,1.17
2023-08-09T23:45:12.256Z,1.30
2023-08-09T23:47:40.151Z,1.30
2023-08-09T23:50:08.302Z,1.23
2023-08-09T23:52:36.103Z,1.20
2023-08-09T23:55:05.249Z,1.40
2023-08-09T23:57:33.003Z,1.45
